• Join FlightAware (Why Join?)
  • Login
  • US Flag 
06:48PM EDT


 

Airport Tracker/Info


-or-


 

Live Flight TrackerFlight Track Log ✈ TRS445 ✈ 29-Apr-2013 ✈ KMSP - KATL

Flight Track Log - Related Links

Times and Time Zones

All times are in EDT time to prevent confusion due to time zone crossing. See the TRS445 flight status page for this flight to view local times or setup timezone preferences in your user account.

Time Position Orientation Groundspeed Altitude Reporting Facility
EDT Latitude Longitude Course Direction KTS MPH feet Rate Location/Type
06:52AM 44.9000 -93.2500 260° West 176 203 2,100  Level Minneapolis TRACON
06:53AM 44.8947 -93.2942 260° West 208 239 3,100 1,380 Climbing Minneapolis Center
06:54AM 44.8611 -93.3558 232° Southwest 236 272 4,600 1,740 Climbing Minneapolis Center
06:55AM 44.7922 -93.3161 158° South 272 313 6,700 2,280 Climbing Minneapolis Center
06:56AM 44.7111 -93.2600 154° Southeast 284 327 9,200 1,920 Climbing Minneapolis Center
06:57AM 44.6361 -93.2044 152° Southeast 312 359 10,600 1,320 Climbing Minneapolis Center
06:58AM 44.5492 -93.1403 152° Southeast 354 407 11,900 1,620 Climbing Minneapolis Center
06:59AM 44.4567 -93.0700 152° Southeast 379 436 13,900 1,920 Climbing Minneapolis Center
07:00AM 44.3628 -93.0008 152° Southeast 384 442 15,800 1,860 Climbing Minneapolis Center
07:01AM 44.2647 -92.9281 152° Southeast 399 459 17,700 1,920 Climbing Minneapolis Center
07:02AM 44.1639 -92.8575 153° Southeast 404 465 19,700 1,920 Climbing Minneapolis Center
07:03AM 44.0575 -92.7867 154° Southeast 420 483 21,600 1,680 Climbing Minneapolis Center
07:04AM 43.9533 -92.7131 153° Southeast 421 484 23,100 1,560 Climbing Minneapolis Center
07:05AM 43.8428 -92.6381 154° Southeast 435 501 24,800 1,500 Climbing Minneapolis Center
07:06AM 43.7264 -92.5675 156° South 443 510 26,200 1,140 Climbing Minneapolis Center
07:07AM 43.6072 -92.5178 163° South 447 514 27,200 1,140 Climbing Minneapolis Center
07:08AM 43.4864 -92.4656 163° South 457 526 28,500 1,140 Climbing Minneapolis Center
07:09AM 43.3656 -92.4100 162° South 461 531 29,600 1,140 Climbing Minneapolis Center
07:10AM 43.2436 -92.3564 162° South 464 534 30,800 1,320 Climbing Minneapolis Center
07:11AM 43.0989 -92.2928 162° South 462 532 32,300 1,080 Climbing Minneapolis Center
07:12AM 42.9789 -92.2403 162° South 459 528 33,000 840 Climbing Minneapolis Center
07:13AM 42.8594 -92.1889 162° South 458 527 34,100 960 Climbing Minneapolis Center
07:14AM 42.7408 -92.1347 161° South 459 528 35,000 420 Climbing Minneapolis Center
07:15AM 42.6208 -92.0842 163° South 458 527 35,000  Level Minneapolis Center
07:17AM 42.4789 -92.0211 162° South 454 522 35,000  Level Chicago Center
07:18AM 42.3611 -91.9708 162° South 451 519 35,000  Level Chicago Center
07:19AM 42.2417 -91.9181 162° South 457 526 35,000  Level Chicago Center
07:20AM 42.1219 -91.8689 163° South 455 524 35,000  Level Chicago Center
07:21AM 42.0008 -91.8172 162° South 460 529 35,000  Level Chicago Center
07:22AM 41.8556 -91.7550 162° South 463 533 35,000  Level Chicago Center
07:23AM 41.7344 -91.7044 163° South 462 532 35,000  Level Chicago Center
07:24AM 41.6181 -91.6364 156° South 460 529 35,000  Level Chicago Center
07:25AM 41.5069 -91.5431 148° Southeast 475 547 35,000  Level Chicago Center
07:26AM 41.3983 -91.4500 147° Southeast 470 541 35,000  Level Chicago Center
07:27AM 41.2881 -91.3589 148° Southeast 471 542 35,000  Level Chicago Center
07:28AM 41.1686 -91.2611 148° Southeast 469 540 35,000  Level Chicago Center
07:29AM 41.0594 -91.1689 147° Southeast 467 537 35,000  Level Chicago Center
07:30AM 40.9492 -91.0792 148° Southeast 468 539 35,000  Level Chicago Center
07:31AM 40.8403 -90.9881 148° Southeast 466 536 35,000  Level Chicago Center
07:32AM 40.7292 -90.8989 149° Southeast 466 536 35,000  Level Chicago Center
07:33AM 40.5969 -90.7897 148° Southeast 468 539 35,000  Level Chicago Center
07:34AM 40.4822 -90.7092 152° Southeast 471 542 35,000  Level Chicago Center
07:35AM 40.3603 -90.6567 162° South 465 535 35,000  Level Chicago Center
07:36AM 40.2381 -90.6033 162° South 466 536 35,000  Level Chicago Center
07:37AM 40.1144 -90.5506 162° South 468 539 35,000  Level Chicago Center
07:38AM 40.0175 -90.5019 159° South 469 540 35,000  Level Kansas City Center
07:39AM 39.9075 -90.4078 147° Southeast 476 548 35,000  Level Kansas City Center
07:40AM 39.7975 -90.3122 146° Southeast 476 548 35,000  Level Kansas City Center
07:41AM 39.6769 -90.2072 146° Southeast 479 551 35,000  Level Kansas City Center
07:42AM 39.5664 -90.1108 146° Southeast 478 550 35,000  Level Kansas City Center
07:43AM 39.4558 -90.0161 147° Southeast 477 549 35,000  Level Kansas City Center
07:44AM 39.3442 -89.9228 147° Southeast 476 548 35,000  Level Kansas City Center
07:45AM 39.2339 -89.8303 147° Southeast 473 544 35,000  Level Kansas City Center
07:46AM 39.1097 -89.7272 147° Southeast 470 541 35,000  Level Kansas City Center
07:47AM 38.9906 -89.6264 147° Southeast 475 547 35,000  Level Kansas City Center
07:48AM 38.8792 -89.5339 147° Southeast 476 548 35,000  Level Kansas City Center
07:49AM 38.7681 -89.4425 147° Southeast 474 545 35,000  Level Kansas City Center
07:50AM 38.6575 -89.3506 147° Southeast 474 545 35,000  Level Kansas City Center
07:51AM 38.5461 -89.2586 147° Southeast 475 547 35,000  Level Kansas City Center
07:52AM 38.4275 -89.1608 147° Southeast 472 543 35,000  Level Kansas City Center
07:53AM 38.3172 -89.0706 147° Southeast 472 543 35,000  Level Kansas City Center
07:54AM 38.2111 -88.9864 148° Southeast 475 547 35,000  Level Kansas City Center
07:55AM 38.0992 -88.8953 147° Southeast 479 551 35,000  Level Kansas City Center
07:56AM 37.9889 -88.8058 147° Southeast 474 545 35,000  Level Kansas City Center
07:57AM 37.8794 -88.7164 147° Southeast 470 541 35,000  Level Kansas City Center
07:58AM 37.7747 -88.6319 147° Southeast 460 529 35,000  Level Kansas City Center
07:59AM 37.6644 -88.5442 148° Southeast 464 534 35,000  Level Kansas City Center
08:00AM 37.6033 -88.4958 148° Southeast 470 541 35,000  Level Memphis Center
08:01AM 37.4936 -88.4097 148° Southeast 470 541 35,000  Level Memphis Center
08:02AM 37.3861 -88.3236 148° Southeast 464 534 35,000  Level Memphis Center
08:03AM 37.2822 -88.2244 143° Southeast 464 534 35,000  Level Memphis Center
08:04AM 37.1947 -88.1044 132° Southeast 464 534 35,000  Level Memphis Center
08:05AM 37.1050 -87.9847 133° Southeast 469 540 35,000  Level Memphis Center
08:06AM 37.0172 -87.8628 132° Southeast 469 540 35,000 -120 Level Memphis Center
08:07AM 36.9233 -87.7542 137° Southeast 458 527 34,800 -600 Descending Memphis Center
08:08AM 36.8211 -87.6511 141° Southeast 464 534 33,800 -900 Descending Memphis Center
08:09AM 36.7208 -87.5508 141° Southeast 471 542 33,000 -420 Descending Memphis Center
08:10AM 36.6183 -87.4486 141° Southeast 471 542 33,000  Level Memphis Center
08:11AM 36.5075 -87.3414 142° Southeast 466 536 33,000  Level Memphis Center
08:12AM 36.4050 -87.2447 143° Southeast 466 536 33,000  Level Memphis Center
08:13AM 36.3025 -87.1456 142° Southeast 466 536 33,000  Level Memphis Center
08:14AM 36.2019 -87.0442 141° Southeast 466 536 33,000  Level Memphis Center
08:15AM 36.0969 -86.9458 143° Southeast 471 542 33,000  Level Memphis Center
08:16AM 35.9961 -86.8447 141° Southeast 471 542 33,000  Level Memphis Center
08:17AM 35.8933 -86.7467 142° Southeast 476 548 33,000  Level Memphis Center
08:18AM 35.7903 -86.6489 142° Southeast 476 548 33,000  Level Memphis Center
08:19AM 35.6414 -86.5022 141° Southeast 463 533 33,000  Level Atlanta Center
08:20AM 35.5411 -86.4072 142° Southeast 458 527 33,000  Level Atlanta Center
08:21AM 35.4342 -86.3200 146° Southeast 458 527 33,000 -240 Level Atlanta Center
08:22AM 35.2925 -86.3211 180° South 440 506 32,600 -840 Descending Atlanta Center
08:24AM 35.0497 -86.3603 188° South 446 513 30,600 -1,080 Descending Atlanta Center
08:25AM 34.9344 -86.3797 188° South 435 501 29,500 -1,020 Descending Atlanta Center
08:26AM 34.8394 -86.3242 154° Southeast 376 433 28,600 -960 Descending Atlanta Center
08:27AM 34.7789 -86.2111 123° Southeast 361 415 27,600 -840 Descending Atlanta Center
08:28AM 34.7122 -86.0881 123° Southeast 389 448 27,000 -300 Descending Atlanta Center
08:29AM 34.6475 -85.9678 123° Southeast 404 465 27,000 -420 Level Atlanta Center
08:30AM 34.5783 -85.8478 125° Southeast 425 489 26,200 -900 Descending Atlanta Center
08:31AM 34.5192 -85.7456 125° Southeast 429 494 25,200 -1,080 Descending Atlanta Center
08:32AM 34.4539 -85.6283 124° Southeast 429 494 24,100 -1,560 Descending Atlanta Center
08:33AM 34.3867 -85.5064 124° Southeast 417 480 22,100 -2,100 Descending Atlanta Center
08:34AM 34.3231 -85.3969 125° Southeast 406 467 20,000 -2,160 Descending Atlanta Center
08:35AM 34.2617 -85.2906 125° Southeast 394 453 17,800 -1,980 Descending Atlanta Center
08:36AM 34.2083 -85.1992 125° Southeast 385 443 16,100 -1,980 Descending Atlanta Center
08:37AM 34.1486 -85.1006 126° Southeast 371 427 13,900 -1,560 Descending Atlanta Center
08:38AM 34.0847 -85.0219 134° Southeast 348 400 13,000 -780 Descending Atlanta Center
08:39AM 34.0142 -84.9586 143° Southeast 328 377 12,400 -960 Descending Atlanta Center
08:40AM 33.9369 -84.9478 173° South 295 339 11,100 -1,140 Descending Atlanta Center
08:41AM 33.8725 -84.9369 172° South 259 298 10,200 -1,080 Descending Atlanta Center
08:42AM 33.8183 -84.9214 167° South 218 251 9,000 -660 Descending Atlanta Center
08:43AM 33.7642 -84.9133 173° South 201 231 8,900 -780 Descending Atlanta Center
08:44AM 33.7097 -84.9003 169° South 201 231 7,500 -960 Descending Atlanta Center
08:45AM 33.6556 -84.8872 169° South 201 231 7,000 -360 Descending Atlanta Center
08:46AM 33.6333 -84.8500 126° Southeast 213 245 7,000 -300 Level Atlanta TRACON
08:47AM 33.6333 -84.7833 90° East 221 254 6,600 -900 Descending Atlanta TRACON
08:48AM 33.6333 -84.7167 90° East 215 247 5,200 -1,260 Descending Atlanta TRACON
08:49AM 33.6333 -84.6500 90° East 206 237 4,100 -1,080 Descending Atlanta TRACON
08:50AM 33.6333 -84.5833 90° East 198 228 3,100 -960 Descending Atlanta TRACON
08:51AM 33.6333 -84.5167 90° East 159 183 2,200 -900 Descending Atlanta TRACON
08:52AM 33.6333 -84.4667 90° East 141 162 1,400 -840 Descending Atlanta TRACON
08:54AM 33.6367 -84.4279 North  Level Estimated
09:01AM 33.6367 -84.4279 North  Level Estimated